CheckWX is a tool to help pilots better visualize weather data.  It is not intended as a substitute for an official pre-flight weather briefing.

02:58:25 UTC

HKMO METAR
Mombasa Moi International Airport
Mombasa, Kenya
Current

58 mins ago

HKMO 230200Z 18008KT 9999 FEW020 24/19 Q1015 NOSIG
Observed
Jul-23 @ 02:00 UTC
Wind
  • 180° at 8 KTS
Visibility
10,000+ meters
Flight Rules
VFR
Cloud Levels
  • Few at 2,000' AGL
Temperature
24°C / 75°F
Dewpoint
19°C / 66°F
Humidity
74%
Altimeter
29.97" Hg
Pressure
1014.92 hPa
Previous

2 hours ago

HKMO 230100Z 18009KT 9999 SCT020 24/20 Q1014 NOSIG
Observed
Jul-23 @ 01:00 UTC
Wind
  • 180° at 9 KTS
Visibility
10,000+ meters
Flight Rules
VFR
Cloud Levels
  • Scattered at 2,000' AGL
Temperature
24°C / 75°F
Dewpoint
20°C / 68°F
Humidity
78%
Altimeter
29.94" Hg
Pressure
1013.92 hPa
Previous

3 hours ago

HKMO 230000Z 19010KT 9999 FEW020 23/20 Q1014 NOSIG
Observed
Jul-23 @ 00:00 UTC
Wind
  • 190° at 10 KTS
Visibility
10,000+ meters
Flight Rules
VFR
Cloud Levels
  • Few at 2,000' AGL
Temperature
23°C / 73°F
Dewpoint
20°C / 68°F
Humidity
83%
Altimeter
29.94" Hg
Pressure
1013.92 hPa